Time;durP1;ratioP1;P1;durP2;ratioP2;P2;SDS_P1;SDS_P2;PMS_P1;PMS_P2;Temp;Humidity;BMP_temperature;BMP_pressure;BME280_temperature;BME280_humidity;BME280_pressure;Samples;Min_cycle;Max_cycle;Signal;HPM_P1;HPM_P2
2023/07/09 00:01:01;;;;;;;;;10.00;10.00;;;;;27.65;100.00;101354.63;5036428;28;45340;-80
2023/07/09 00:03:26;;;;;;;;;8.33;8.33;;;;;27.62;100.00;101354.75;5037424;28;49995;-79
2023/07/09 00:05:52;;;;;;;;;8.00;8.00;;;;;27.63;100.00;101369.19;5037762;28;49359;-78
2023/07/09 00:08:29;;;;;;;;;8.67;8.67;;;;;27.58;100.00;101361.28;5036025;28;65291;-79
2023/07/09 00:10:55;;;;;;;;;9.33;8.00;;;;;27.56;100.00;101365.94;5036156;28;45511;-79
2023/07/09 00:13:22;;;;;;;;;10.00;9.00;;;;;27.54;100.00;101361.53;5036789;28;45530;-78
2023/07/09 00:15:48;;;;;;;;;10.00;10.00;;;;;27.49;100.00;101356.38;5033785;28;45496;-78
2023/07/09 00:18:13;;;;;;;;;7.33;6.33;;;;;27.48;100.00;101365.44;5037176;28;46900;-79
2023/07/09 00:20:39;;;;;;;;;8.33;8.33;;;;;27.47;100.00;101362.81;5036664;28;52588;-79
2023/07/09 00:23:05;;;;;;;;;10.00;8.33;;;;;27.43;100.00;101372.94;5033337;28;45638;-79
2023/07/09 00:25:30;;;;;;;;;12.00;11.00;;;;;27.33;100.00;101363.53;5037398;28;45560;-80
2023/07/09 00:27:56;;;;;;;;;12.00;10.33;;;;;27.27;100.00;101371.94;5036723;28;46287;-79
2023/07/09 00:30:23;;;;;;;;;12.00;9.00;;;;;27.24;100.00;101377.53;5037637;28;45149;-78
2023/07/09 00:32:51;;;;;;;;;11.67;10.00;;;;;27.20;100.00;101376.81;5034793;28;45424;-79
2023/07/09 00:35:17;;;;;;;;;7.00;7.00;;;;;27.17;100.00;101374.28;5037884;28;45510;-78
2023/07/09 00:37:43;;;;;;;;;10.33;9.00;;;;;27.12;100.00;101379.91;5036458;28;46679;-80
2023/07/09 00:40:16;;;;;;;;;7.33;7.33;;;;;27.08;100.00;101383.72;5037440;28;45438;-78
2023/07/09 00:42:46;;;;;;;;;13.00;9.33;;;;;27.05;100.00;101380.25;5036513;28;45147;-78
2023/07/09 00:45:24;;;;;;;;;10.33;9.33;;;;;27.02;100.00;101384.00;5037500;28;45431;-78
2023/07/09 00:48:00;;;;;;;;;8.00;8.00;;;;;27.00;100.00;101391.31;5034304;28;47414;-79
2023/07/09 00:50:41;;;;;;;;;9.00;9.00;;;;;26.99;100.00;101388.66;5033504;28;45295;-78
2023/07/09 00:53:18;;;;;;;;;12.33;12.33;;;;;26.99;100.00;101385.97;5034228;28;45735;-80
2023/07/09 00:55:45;;;;;;;;;11.00;9.33;;;;;26.99;100.00;101396.81;5036936;28;45195;-80
2023/07/09 00:58:15;;;;;;;;;10.00;9.00;;;;;26.99;100.00;101396.81;5035332;28;46034;-79
2023/07/09 01:00:48;;;;;;;;;9.00;9.00;;;;;26.98;100.00;101403.19;5036658;28;45360;-78
2023/07/09 01:03:20;;;;;;;;;9.00;9.00;;;;;26.96;100.00;101396.97;5036605;28;45609;-78
2023/07/09 01:05:51;;;;;;;;;11.00;10.67;;;;;26.93;100.00;101392.56;5036269;28;45505;-79
2023/07/09 01:08:17;;;;;;;;;10.33;7.67;;;;;26.89;100.00;101391.81;5035462;28;47471;-79
2023/07/09 01:10:43;;;;;;;;;13.67;10.00;;;;;26.87;100.00;101393.72;5036659;28;45496;-79
2023/07/09 01:13:08;;;;;;;;;6.33;6.33;;;;;26.88;100.00;101400.91;5036224;28;45185;-79
2023/07/09 01:15:37;;;;;;;;;9.33;8.67;;;;;26.89;100.00;101404.50;5035570;28;45550;-79
2023/07/09 01:18:03;;;;;;;;;8.00;8.00;;;;;26.90;100.00;101403.56;5035924;28;47483;-79
2023/07/09 01:20:29;;;;;;;;;10.67;10.33;;;;;26.88;100.00;101409.03;5036849;28;45259;-80
2023/07/09 01:22:54;;;;;;;;;10.00;9.00;;;;;26.85;100.00;101414.63;5036177;28;46378;-79
2023/07/09 01:25:20;;;;;;;;;7.00;7.00;;;;;26.84;100.00;101422.81;5036514;28;45719;-80
2023/07/09 01:27:46;;;;;;;;;9.00;8.00;;;;;26.79;100.00;101412.22;5036553;28;46352;-80
2023/07/09 01:30:26;;;;;;;;;9.33;8.33;;;;;26.77;100.00;101426.75;5036110;28;45501;-80
2023/07/09 01:32:56;;;;;;;;;10.00;10.00;;;;;26.74;100.00;101430.50;5037000;28;45332;-79
2023/07/09 01:35:22;;;;;;;;;9.33;8.67;;;;;26.76;100.00;101433.16;5027870;28;45559;-79
2023/07/09 01:37:48;;;;;;;;;8.33;8.33;;;;;26.74;100.00;101430.50;5036405;28;46114;-80
2023/07/09 01:40:16;;;;;;;;;9.00;9.00;;;;;26.71;100.00;101427.94;5031943;28;45355;-79
2023/07/09 01:42:42;;;;;;;;;8.00;8.00;;;;;26.72;100.00;101428.81;5036960;28;45568;-80
2023/07/09 01:45:10;;;;;;;;;11.00;11.00;;;;;26.72;100.00;101434.22;5036000;28;45650;-80
2023/07/09 01:47:35;;;;;;;;;9.67;9.67;;;;;26.71;100.00;101435.19;5035942;28;46744;-80
2023/07/09 01:50:01;;;;;;;;;8.00;7.00;;;;;26.70;100.00;101438.84;5035778;28;45613;-79
2023/07/09 01:52:29;;;;;;;;;6.67;6.00;;;;;26.64;100.00;101434.59;5032398;28;66603;-79
2023/07/09 01:54:55;;;;;;;;;9.00;9.00;;;;;26.66;100.00;101446.22;5035121;28;45594;-79
2023/07/09 01:57:24;;;;;;;;;7.33;7.33;;;;;26.63;100.00;101441.84;5035916;28;46639;-79
2023/07/09 01:59:50;;;;;;;;;8.00;8.00;;;;;26.64;100.00;101449.03;5035562;28;45570;-79
2023/07/09 02:02:18;;;;;;;;;11.00;9.00;;;;;26.63;100.00;101441.84;5036041;28;45245;-80
2023/07/09 02:04:53;;;;;;;;;10.00;9.00;;;;;26.62;100.00;101442.78;5035714;28;47168;-79
2023/07/09 02:07:19;;;;;;;;;13.33;12.00;;;;;26.61;100.00;101437.44;5035877;28;47986;-79
2023/07/09 02:09:45;;;;;;;;;8.33;8.00;;;;;26.58;100.00;101442.97;5035426;28;45633;-79
2023/07/09 02:12:11;;;;;;;;;16.33;13.33;;;;;26.56;100.00;101436.78;5035762;28;45616;-79
2023/07/09 02:14:38;;;;;;;;;19.33;16.00;;;;;26.52;100.00;101438.72;5034715;28;45521;-79
2023/07/09 02:17:04;;;;;;;;;16.00;15.67;;;;;26.51;100.00;101449.63;5035728;28;46717;-79
2023/07/09 02:19:29;;;;;;;;;18.00;17.67;;;;;26.47;100.00;101440.75;5035546;28;45337;-79
2023/07/09 02:21:55;;;;;;;;;19.67;17.00;;;;;26.45;100.00;101453.50;5035668;28;45479;-80
2023/07/09 02:24:24;;;;;;;;;15.33;14.67;;;;;26.45;100.00;101452.63;5036168;28;45493;-79
2023/07/09 02:26:50;;;;;;;;;15.67;14.00;;;;;26.40;100.00;101444.69;5035245;28;46466;-79
2023/07/09 02:29:16;;;;;;;;;18.00;13.67;;;;;26.39;100.00;101443.81;5035250;28;45953;-79
2023/07/09 02:31:41;;;;;;;;;16.00;16.00;;;;;26.36;100.00;101452.06;5035544;28;45481;-79
2023/07/09 02:34:07;;;;;;;;;14.67;11.00;;;;;26.32;100.00;101455.88;5033806;28;61729;-78
2023/07/09 02:36:32;;;;;;;;;11.00;11.00;;;;;26.30;100.00;101448.75;5034798;28;47479;-80
2023/07/09 02:38:57;;;;;;;;;14.00;12.33;;;;;26.23;100.00;101449.97;5034654;28;63289;-79
2023/07/09 02:41:23;;;;;;;;;12.00;11.00;;;;;26.21;100.00;101451.88;5034473;28;60258;-79
2023/07/09 02:43:48;;;;;;;;;13.00;10.00;;;;;26.15;100.00;101441.31;5028733;28;53359;-79
2023/07/09 02:46:13;;;;;;;;;10.00;9.33;;;;;26.11;100.00;101449.56;5038010;28;61633;-79
2023/07/09 02:48:39;;;;;;;;;8.67;8.67;;;;;26.06;100.00;101440.78;5038232;28;66893;-80
2023/07/09 02:51:04;;;;;;;;;9.00;9.00;;;;;26.03;100.00;101446.31;5038247;28;51327;-79
2023/07/09 02:53:29;;;;;;;;;10.00;9.67;;;;;26.00;100.00;101446.47;5037932;28;63404;-79
2023/07/09 02:55:55;;;;;;;;;10.00;10.00;;;;;25.96;100.00;101443.94;5037493;28;70420;-78
2023/07/09 02:58:20;;;;;;;;;12.00;9.00;;;;;25.92;100.00;101453.13;5039046;28;45277;-79
2023/07/09 03:00:51;;;;;;;;;9.00;9.00;;;;;25.89;100.00;101453.25;5037993;28;61047;-80
2023/07/09 03:03:17;;;;;;;;;9.00;8.00;;;;;25.85;100.00;101448.00;5038767;28;45470;-80
2023/07/09 03:05:44;;;;;;;;;9.00;9.00;;;;;25.84;100.00;101456.19;5038172;28;45677;-79
2023/07/09 03:08:10;;;;;;;;;10.33;9.33;;;;;25.81;100.00;101450.91;5027104;28;45478;-79
2023/07/09 03:10:35;;;;;;;;;10.67;8.67;;;;;25.77;100.00;101457.38;5037831;28;64815;-80
2023/07/09 03:13:00;;;;;;;;;13.00;9.00;;;;;25.77;100.00;101460.06;5038462;28;59945;-79
2023/07/09 03:15:26;;;;;;;;;8.33;8.00;;;;;25.72;100.00;101470.19;5037360;28;68827;-80
2023/07/09 03:17:51;;;;;;;;;9.00;9.00;;;;;25.68;100.00;101466.75;5037889;28;63909;-78
2023/07/09 03:20:16;;;;;;;;;8.67;7.00;;;;;25.66;100.00;101475.84;5038882;28;45311;-79
2023/07/09 03:22:42;;;;;;;;;9.00;9.00;;;;;25.60;100.00;101468.88;5036307;28;58050;-79
2023/07/09 03:25:07;;;;;;;;;8.67;8.67;;;;;25.59;100.00;101473.41;5038415;28;47179;-79
2023/07/09 03:27:32;;;;;;;;;10.00;8.00;;;;;25.56;100.00;101470.81;5037331;28;68326;-78
2023/07/09 03:29:58;;;;;;;;;8.00;8.00;;;;;25.54;100.00;101475.41;5037363;28;67313;-80
2023/07/09 03:32:23;;;;;;;;;9.33;9.33;;;;;25.53;100.00;101472.78;5038554;28;45537;-79
2023/07/09 03:34:48;;;;;;;;;9.67;7.67;;;;;25.49;100.00;101471.13;5036975;28;69446;-78
2023/07/09 03:37:15;;;;;;;;;10.33;8.67;;;;;25.49;100.00;101473.84;5036961;28;65443;-80
2023/07/09 03:39:40;;;;;;;;;13.00;9.00;;;;;25.50;100.00;101471.06;5038676;28;45521;-78
2023/07/09 03:42:05;;;;;;;;;12.00;10.67;;;;;25.48;100.00;101470.25;5037012;28;62390;-79
2023/07/09 03:44:31;;;;;;;;;9.00;8.00;;;;;25.49;100.00;101479.25;5033202;28;45435;-80
2023/07/09 03:46:56;;;;;;;;;9.00;8.33;;;;;25.47;100.00;101479.31;5036779;28;66047;-80
2023/07/09 03:49:21;;;;;;;;;11.00;8.00;;;;;25.49;100.00;101481.97;5031340;28;54088;-78
2023/07/09 03:51:47;;;;;;;;;10.67;9.00;;;;;25.44;100.00;101468.63;5036355;28;61474;-79
2023/07/09 03:54:12;;;;;;;;;9.00;9.00;;;;;25.43;100.00;101469.56;5031702;28;67341;-79
2023/07/09 03:56:37;;;;;;;;;7.00;7.00;;;;;25.42;100.00;101472.34;5036825;28;45469;-80
2023/07/09 03:59:03;;;;;;;;;8.33;8.33;;;;;25.39;100.00;101465.22;5035316;28;64206;-79
2023/07/09 04:01:28;;;;;;;;;8.67;8.67;;;;;25.38;100.00;101466.16;5038392;28;45533;-78
2023/07/09 04:03:53;;;;;;;;;7.00;7.00;;;;;25.36;100.00;101469.91;5036717;28;68647;-79
2023/07/09 04:06:19;;;;;;;;;9.00;9.00;;;;;25.34;100.00;101468.09;5037417;28;66332;-80
2023/07/09 04:08:44;;;;;;;;;7.33;7.33;;;;;25.34;100.00;101472.63;5036482;28;52661;-80
2023/07/09 04:11:09;;;;;;;;;8.33;8.33;;;;;25.33;100.00;101479.00;5036538;28;63686;-80
2023/07/09 04:13:35;;;;;;;;;10.67;9.33;;;;;25.31;100.00;101478.19;5036520;28;70016;-78
2023/07/09 04:16:00;;;;;;;;;10.00;8.00;;;;;25.28;100.00;101479.16;5037250;28;45536;-79
2023/07/09 04:18:25;;;;;;;;;8.33;8.33;;;;;25.28;100.00;101473.75;5037082;28;54933;-79
2023/07/09 04:20:51;;;;;;;;;10.33;9.00;;;;;25.28;100.00;101479.16;5034083;28;45799;-80
2023/07/09 04:23:18;;;;;;;;;8.00;6.33;;;;;25.26;100.00;101483.78;5033626;28;46148;-79
2023/07/09 04:25:43;;;;;;;;;9.33;9.00;;;;;25.28;100.00;101491.81;5036988;28;45241;-80
2023/07/09 04:28:08;;;;;;;;;10.00;8.00;;;;;25.27;100.00;101482.81;5036539;28;65066;-80
2023/07/09 04:30:34;;;;;;;;;11.00;8.33;;;;;25.26;100.00;101481.06;5037213;28;48750;-79
2023/07/09 04:32:59;;;;;;;;;6.33;6.33;;;;;25.25;100.00;101476.63;5036733;28;55158;-80
2023/07/09 04:35:25;;;;;;;;;9.67;9.00;;;;;25.24;100.00;101471.25;5036907;28;58725;-80
2023/07/09 04:37:50;;;;;;;;;8.33;8.33;;;;;25.26;100.00;101469.38;5035542;28;45584;-79
2023/07/09 04:40:18;;;;;;;;;7.00;7.00;;;;;25.25;100.00;101467.63;5036889;28;56976;-80
2023/07/09 04:42:43;;;;;;;;;7.67;6.33;;;;;25.26;100.00;101463.97;5036985;28;46472;-80
2023/07/09 04:45:10;;;;;;;;;6.67;6.67;;;;;25.24;100.00;101455.91;5037196;28;45385;-79
2023/07/09 04:47:36;;;;;;;;;7.67;6.00;;;;;25.29;100.00;101466.53;5037569;28;45546;-79
2023/07/09 04:50:07;;;;;;;;;11.00;9.33;;;;;25.28;100.00;101470.19;5036994;28;45248;-79
2023/07/09 04:52:32;;;;;;;;;8.00;7.33;;;;;25.31;100.00;101461.97;5036482;28;46365;-78
2023/07/09 04:54:58;;;;;;;;;8.00;8.00;;;;;25.29;100.00;101461.13;5036124;28;45489;-80
2023/07/09 04:57:24;;;;;;;;;7.33;7.33;;;;;25.30;100.00;101455.69;5036406;28;62447;-78
2023/07/09 04:59:49;;;;;;;;;6.67;6.67;;;;;25.31;100.00;101464.66;5037199;28;45445;-80
2023/07/09 05:02:15;;;;;;;;;11.33;9.00;;;;;25.32;100.00;101455.63;5036245;28;47035;-79
2023/07/09 05:04:40;;;;;;;;;10.00;8.00;;;;;25.32;100.00;101452.91;5036153;28;67670;-79
2023/07/09 05:07:06;;;;;;;;;7.00;7.00;;;;;25.30;100.00;101455.69;5035144;28;64051;-79
2023/07/09 05:09:32;;;;;;;;;7.33;6.33;;;;;25.32;100.00;101458.31;5036221;28;45524;-80
2023/07/09 05:11:58;;;;;;;;;8.67;8.67;;;;;25.32;100.00;101461.03;5030945;28;46556;-79
2023/07/09 05:14:23;;;;;;;;;8.67;8.67;;;;;25.29;100.00;101453.00;5166689;22;46874;-79
2023/07/09 05:16:48;;;;;;;;;12.00;9.00;;;;;25.26;100.00;101445.94;5036235;28;63718;-79
2023/07/09 05:19:14;;;;;;;;;10.67;9.00;;;;;25.27;100.00;101441.41;5035595;28;60566;-79
2023/07/09 05:21:39;;;;;;;;;11.00;7.00;;;;;25.30;100.00;101442.16;5036770;28;46999;-80
2023/07/09 05:24:05;;;;;;;;;11.67;7.67;;;;;25.32;100.00;101459.19;5035806;28;61324;-80
2023/07/09 05:26:30;;;;;;;;;9.33;9.33;;;;;25.33;100.00;101465.47;5036293;28;46369;-79
2023/07/09 05:28:56;;;;;;;;;9.00;8.00;;;;;25.37;100.00;101475.22;5036258;28;45466;-78
2023/07/09 05:31:22;;;;;;;;;7.67;7.67;;;;;25.40;100.00;101472.38;5036178;28;48180;-79
2023/07/09 05:33:47;;;;;;;;;9.67;7.67;;;;;25.41;100.00;101460.66;5035400;28;66712;-79
2023/07/09 05:36:15;;;;;;;;;7.00;7.00;;;;;25.49;100.00;101468.44;5035890;28;55904;-78
2023/07/09 05:38:44;;;;;;;;;11.67;9.00;;;;;25.55;100.00;101470.88;5036156;28;45410;-80
2023/07/09 05:41:09;;;;;;;;;5.67;5.33;;;;;25.59;100.00;101467.13;5036301;28;46515;-79
2023/07/09 05:43:35;;;;;;;;;9.00;7.00;;;;;25.64;100.00;101477.75;5036041;28;45466;-79
2023/07/09 05:46:05;;;;;;;;;10.33;7.67;;;;;25.71;100.00;101476.53;5036082;28;55720;-79
2023/07/09 05:48:30;;;;;;;;;7.67;7.67;;;;;25.76;100.00;101471.84;5036369;28;45509;-80
2023/07/09 05:50:55;;;;;;;;;8.00;7.33;;;;;25.81;100.00;101468.00;5035759;28;47570;-80
2023/07/09 05:53:22;;;;;;;;;7.33;6.67;;;;;25.89;100.00;101465.00;5032452;28;49776;-80
2023/07/09 05:55:47;;;;;;;;;7.67;7.00;;;;;25.95;100.00;101467.44;5030592;28;45412;-80
2023/07/09 05:58:12;;;;;;;;;6.00;4.00;;;;;25.99;100.00;101474.44;5035608;28;59708;-80
2023/07/09 06:00:41;;;;;;;;;10.33;9.00;;;;;26.06;100.00;101485.91;5033624;28;70763;-79
2023/07/09 06:03:07;;;;;;;;;9.00;9.00;;;;;26.10;100.00;101469.47;5035848;28;45483;-78
2023/07/09 06:05:33;;;;;;;;;8.67;6.00;;;;;26.17;100.00;101466.50;5036259;28;45694;-79
2023/07/09 06:07:59;;;;;;;;;9.00;7.67;;;;;26.25;100.00;101462.47;5036361;28;45641;-79
2023/07/09 06:10:24;;;;;;;;;5.00;5.00;;;;;26.29;100.00;101458.69;5030794;28;46758;-80
2023/07/09 06:12:49;;;;;;;;;6.00;6.00;;;;;26.32;100.00;101453.16;5036044;28;45330;-80
2023/07/09 06:15:15;;;;;;;;;10.00;7.00;;;;;26.38;100.00;101458.31;5027873;28;45847;-84
2023/07/09 06:17:41;;;;;;;;;8.67;7.67;;;;;26.41;100.00;101451.84;5032096;28;45559;-80
2023/07/09 06:20:08;;;;;;;;;7.67;7.33;;;;;26.44;100.00;101450.88;5033426;28;46719;-79
2023/07/09 06:22:33;;;;;;;;;6.67;6.67;;;;;26.46;100.00;101462.50;5032798;28;45494;-80
2023/07/09 06:24:58;;;;;;;;;8.67;8.67;;;;;26.52;100.00;101470.34;5029438;28;65599;-80
2023/07/09 06:27:24;;;;;;;;;9.00;8.00;;;;;26.52;100.00;101464.94;5027544;28;58900;-80
2023/07/09 06:29:49;;;;;;;;;8.00;7.00;;;;;26.53;100.00;101482.97;5032028;28;47467;-80
2023/07/09 06:32:15;;;;;;;;;8.33;7.00;;;;;26.54;100.00;101493.72;5032819;28;45510;-82
2023/07/09 06:34:40;;;;;;;;;10.67;8.33;;;;;26.57;100.00;101498.13;5033344;28;45423;-80
2023/07/09 06:37:05;;;;;;;;;8.67;8.00;;;;;26.59;100.00;101502.53;5034367;28;61006;-81
2023/07/09 06:39:31;;;;;;;;;8.33;8.33;;;;;26.63;100.00;101505.97;5033755;28;47420;-81
2023/07/09 06:41:56;;;;;;;;;7.33;7.33;;;;;26.68;100.00;101513.88;5031590;28;45442;-79
2023/07/09 06:44:21;;;;;;;;;10.33;7.00;;;;;26.68;100.00;101509.34;5030294;28;61014;-80
2023/07/09 06:46:47;;;;;;;;;7.67;7.00;;;;;26.73;100.00;101507.31;5034343;28;58411;-80
2023/07/09 06:49:13;;;;;;;;;7.33;7.33;;;;;26.80;100.00;101516.06;5029831;28;46105;-80
2023/07/09 06:51:38;;;;;;;;;8.00;8.00;;;;;26.81;100.00;101518.69;5024308;28;45355;-79
2023/07/09 06:54:04;;;;;;;;;10.00;8.67;;;;;26.86;100.00;101518.47;5025523;28;60973;-80
2023/07/09 06:56:31;;;;;;;;;7.33;7.33;;;;;26.88;100.00;101521.97;5029096;28;45589;-80
2023/07/09 06:58:56;;;;;;;;;8.00;8.00;;;;;26.85;100.00;101531.16;5033634;28;45423;-79
2023/07/09 07:01:22;;;;;;;;;10.33;8.67;;;;;26.86;100.00;101529.31;5030973;28;45381;-85
2023/07/09 07:03:47;;;;;;;;;8.00;8.00;;;;;26.84;100.00;101521.25;5033768;28;45447;-80
2023/07/09 07:06:12;;;;;;;;;10.33;10.00;;;;;26.88;100.00;101521.97;5032687;28;54041;-80
2023/07/09 07:08:38;;;;;;;;;11.33;8.00;;;;;26.89;100.00;101538.16;5034258;28;70999;-80
2023/07/09 07:11:05;;;;;;;;;8.67;8.00;;;;;26.95;100.00;101545.13;5032202;28;64242;-79
2023/07/09 07:13:33;;;;;;;;;7.00;6.67;;;;;26.97;100.00;101539.66;5033516;28;46781;-82
2023/07/09 07:15:58;;;;;;;;;8.67;8.00;;;;;27.03;100.00;101528.53;5034526;28;45431;-80
2023/07/09 07:18:24;;;;;;;;;7.00;7.00;;;;;27.07;100.00;101514.81;5022105;28;47850;-77
2023/07/09 07:20:50;;;;;;;;;10.33;7.33;;;;;27.11;100.00;101510.09;5034115;28;45530;-81
2023/07/09 07:23:16;;;;;;;;;8.00;8.00;;;;;27.10;100.00;101511.94;5030851;28;45503;-80
2023/07/09 07:25:41;;;;;;;;;8.00;7.00;;;;;27.08;100.00;101518.38;5028836;28;45510;-80
2023/07/09 07:28:07;;;;;;;;;9.00;7.67;;;;;27.02;100.00;101524.06;5031128;28;69013;-78
2023/07/09 07:30:32;;;;;;;;;8.00;8.00;;;;;26.98;100.00;101523.31;5032904;28;46906;-79
2023/07/09 07:32:57;;;;;;;;;14.33;8.33;;;;;26.96;100.00;101522.53;5036024;28;45528;-78
2023/07/09 07:35:23;;;;;;;;;9.33;7.00;;;;;26.95;100.00;101528.88;5035510;28;45598;-83
2023/07/09 07:37:48;;;;;;;;;7.33;7.33;;;;;26.91;100.00;101532.69;5031511;28;46246;-82
2023/07/09 07:40:14;;;;;;;;;8.00;8.00;;;;;26.88;100.00;101541.84;5035173;28;68000;-79
2023/07/09 07:42:39;;;;;;;;;7.67;7.67;;;;;26.86;100.00;101546.47;5037134;28;45422;-82
2023/07/09 07:45:06;;;;;;;;;7.67;6.00;;;;;26.80;100.00;101552.16;5033548;28;45490;-79
2023/07/09 07:47:32;;;;;;;;;7.33;7.33;;;;;26.75;100.00;101554.19;5036034;28;48246;-78
2023/07/09 07:49:58;;;;;;;;;8.00;8.00;;;;;26.68;100.00;101566.22;5032897;28;45568;-83
2023/07/09 07:52:23;;;;;;;;;8.00;7.33;;;;;26.63;100.00;101579.09;5036902;28;62587;-81
2023/07/09 07:54:49;;;;;;;;;5.00;5.00;;;;;26.54;100.00;101588.53;5036274;28;45574;-79
2023/07/09 07:57:14;;;;;;;;;7.00;7.00;;;;;26.49;100.00;101619.47;5037227;28;45843;-79
2023/07/09 07:59:40;;;;;;;;;8.00;6.33;;;;;26.43;100.00;101628.75;5032915;28;45424;-78
2023/07/09 08:02:07;;;;;;;;;8.00;8.00;;;;;26.37;100.00;101619.03;5035120;28;46609;-78
2023/07/09 08:04:32;;;;;;;;;8.00;6.00;;;;;26.34;100.00;101621.84;5029906;28;45532;-78
2023/07/09 08:06:58;;;;;;;;;7.67;7.33;;;;;26.28;100.00;101611.28;5029579;28;64671;-81
2023/07/09 08:09:24;;;;;;;;;7.33;6.00;;;;;26.19;100.00;101606.25;5027716;28;45578;-78
2023/07/09 08:11:49;;;;;;;;;6.00;6.00;;;;;26.10;100.00;101585.88;5032279;28;46152;-78
2023/07/09 08:14:14;;;;;;;;;11.33;9.00;;;;;26.05;100.00;101578.88;5033207;28;47284;-78
2023/07/09 08:16:40;;;;;;;;;8.33;7.33;;;;;25.97;100.00;101576.47;5035024;28;45634;-77
2023/07/09 08:19:05;;;;;;;;;7.67;7.00;;;;;25.86;100.00;101578.75;5030768;28;45549;-78
2023/07/09 08:21:31;;;;;;;;;8.67;6.67;;;;;25.79;100.00;101601.59;5036073;28;45530;-82
2023/07/09 08:23:56;;;;;;;;;13.00;9.00;;;;;25.68;100.00;101620.06;5028404;28;45518;-80
2023/07/09 08:26:21;;;;;;;;;7.67;7.67;;;;;25.66;100.00;101614.69;5034173;28;53143;-81
2023/07/09 08:28:47;;;;;;;;;5.33;5.33;;;;;25.59;100.00;101603.22;5031236;28;45739;-80
2023/07/09 08:31:13;;;;;;;;;7.67;7.67;;;;;25.56;100.00;101595.22;5032711;28;45582;-79
2023/07/09 08:33:39;;;;;;;;;9.00;8.00;;;;;25.56;100.00;101588.94;5032617;28;45341;-81
2023/07/09 08:36:05;;;;;;;;;6.33;5.33;;;;;25.57;100.00;101594.31;5033678;28;46474;-79
2023/07/09 08:38:30;;;;;;;;;9.33;9.33;;;;;25.63;100.00;101603.13;5031216;28;45502;-80
2023/07/09 08:41:00;;;;;;;;;8.33;8.00;;;;;25.66;100.00;101584.03;5027975;28;63874;-78
2023/07/09 08:43:53;;;;;;;;;6.67;6.67;;;;;25.71;100.00;101593.75;5030934;28;45200;-80
2023/07/09 08:46:41;;;;;;;;;8.00;8.00;;;;;25.78;100.00;101597.09;5026674;28;47699;-79
2023/07/09 08:49:17;;;;;;;;;7.33;6.00;;;;;25.81;100.00;101600.59;5035292;28;45365;-82
2023/07/09 08:51:45;;;;;;;;;7.00;7.00;;;;;25.89;100.00;101594.88;5028180;28;45478;-81
2023/07/09 08:54:27;;;;;;;;;9.00;7.33;;;;;25.93;100.00;101588.38;5032956;28;45411;-80
2023/07/09 08:56:55;;;;;;;;;9.00;9.00;;;;;25.97;100.00;101591.84;5033199;28;46371;-82
2023/07/09 08:59:20;;;;;;;;;10.00;9.00;;;;;25.97;100.00;101600.84;5032264;28;45473;-81
2023/07/09 09:01:51;;;;;;;;;11.00;9.33;;;;;26.01;100.00;101609.72;5033891;28;45575;-80
2023/07/09 09:04:24;;;;;;;;;7.00;7.00;;;;;26.03;100.00;101607.81;5036583;28;45511;-81
2023/07/09 09:07:18;;;;;;;;;7.00;7.00;;;;;26.06;100.00;101618.53;5035496;28;47789;-83
2023/07/09 09:10:00;;;;;;;;;10.33;9.00;;;;;26.09;100.00;101612.97;5034156;28;45530;-80
2023/07/09 09:12:32;;;;;;;;;9.33;8.33;;;;;26.14;100.00;101619.09;5035885;28;45449;-80
2023/07/09 09:15:01;;;;;;;;;8.00;8.00;;;;;26.15;100.00;101615.44;5036294;28;45412;-80
2023/07/09 09:17:29;;;;;;;;;10.33;9.67;;;;;26.13;100.00;101599.25;5036803;28;46696;-81
2023/07/09 09:19:57;;;;;;;;;8.33;8.00;;;;;26.18;100.00;101596.38;5036147;28;45438;-80
2023/07/09 09:22:26;;;;;;;;;10.67;8.33;;;;;26.18;100.00;101590.06;5037154;28;45403;-82
2023/07/09 09:25:16;;;;;;;;;6.33;6.33;;;;;26.11;100.00;101590.34;5036152;28;46661;-79
2023/07/09 09:27:42;;;;;;;;;8.00;7.00;;;;;26.09;100.00;101618.41;5032633;28;46276;-80
2023/07/09 09:30:16;;;;;;;;;8.00;6.33;;;;;26.08;100.00;101650.00;5035792;28;45652;-81
2023/07/09 09:32:52;;;;;;;;;9.33;7.00;;;;;26.08;100.00;101662.66;5036761;28;45419;-81
2023/07/09 09:35:19;;;;;;;;;9.00;6.33;;;;;26.10;100.00;101653.53;5033986;28;45482;-81
2023/07/09 09:37:51;;;;;;;;;9.33;8.33;;;;;26.17;100.00;101648.75;5036164;28;46871;-83
2023/07/09 09:40:18;;;;;;;;;8.00;8.00;;;;;26.17;100.00;101654.16;5035813;28;45275;-80
2023/07/09 09:42:44;;;;;;;;;7.00;7.00;;;;;26.18;100.00;101663.16;5036823;28;46271;-81
2023/07/09 09:45:16;;;;;;;;;13.00;8.33;;;;;26.11;100.00;101667.97;5035713;28;53373;-81
2023/07/09 09:47:43;;;;;;;;;7.33;6.67;;;;;26.09;100.00;101661.69;5035080;28;46998;-81
2023/07/09 09:50:16;;;;;;;;;8.00;8.00;;;;;26.03;100.00;101661.97;5036613;28;45320;-81
2023/07/09 09:52:43;;;;;;;;;10.67;9.33;;;;;26.00;100.00;101668.38;5036120;28;45415;-81
2023/07/09 09:55:17;;;;;;;;;15.00;11.00;;;;;25.95;100.00;101658.69;5035428;28;45381;-81
2023/07/09 09:57:51;;;;;;;;;11.00;10.00;;;;;25.92;100.00;101653.38;5034242;28;46753;-81
2023/07/09 10:00:18;;;;;;;;;9.00;8.00;;;;;25.90;100.00;101652.56;5034931;28;45293;-82
2023/07/09 10:02:45;;;;;;;;;10.67;10.00;;;;;25.89;100.00;101635.47;5035798;28;45486;-82
2023/07/09 10:05:30;;;;;;;;;8.67;8.67;;;;;25.88;100.00;101627.38;5030923;28;45333;-81
2023/07/09 10:08:01;;;;;;;;;10.00;9.00;;;;;25.88;100.00;101635.50;5035910;28;47421;-82
2023/07/09 10:10:28;;;;;;;;;8.67;8.67;;;;;25.88;100.00;101641.78;5036021;28;45615;-81
2023/07/09 10:12:58;;;;;;;;;11.00;9.00;;;;;25.93;100.00;101644.31;5034595;28;45568;-82
2023/07/09 10:15:34;;;;;;;;;9.33;8.00;;;;;26.00;100.00;101641.31;5034621;28;45563;-82
2023/07/09 10:18:06;;;;;;;;;10.00;8.33;;;;;26.05;100.00;101636.59;5034753;28;46875;-81
2023/07/09 10:20:35;;;;;;;;;11.33;10.33;;;;;26.10;100.00;101621.06;5033405;28;45522;-81
2023/07/09 10:23:22;;;;;;;;;9.33;9.00;;;;;26.15;100.00;101607.31;5035871;28;45502;-81
2023/07/09 10:25:47;;;;;;;;;13.00;9.33;;;;;26.22;100.00;101607.97;5032134;28;46976;-81
2023/07/09 10:28:41;;;;;;;;;8.00;8.00;;;;;26.28;100.00;101626.66;5035656;28;46286;-81
2023/07/09 10:31:31;;;;;;;;;12.33;9.00;;;;;26.34;100.00;101620.97;5035240;28;45271;-82
2023/07/09 10:34:33;;;;;;;;;16.00;13.00;;;;;26.44;100.00;101624.22;5033716;28;45339;-83
2023/07/09 10:37:26;;;;;;;;;15.33;13.33;;;;;26.48;100.00;101632.16;5034879;28;45465;-81
2023/07/09 10:39:55;;;;;;;;;11.67;11.00;;;;;26.57;100.00;101641.69;5034619;28;46562;-80
2023/07/09 10:42:25;;;;;;;;;13.00;11.00;;;;;26.61;100.00;101643.31;5035397;28;45440;-81
2023/07/09 10:44:58;;;;;;;;;12.67;12.67;;;;;26.57;100.00;101626.31;5033808;28;45486;-83
2023/07/09 10:47:34;;;;;;;;;11.00;11.00;;;;;26.56;100.00;101629.97;5034926;28;45279;-81
2023/07/09 10:50:02;;;;;;;;;17.00;16.00;;;;;26.54;100.00;101645.41;5035789;28;46764;-80
2023/07/09 10:52:41;;;;;;;;;13.00;11.67;;;;;26.56;100.00;101639.94;5033491;28;45651;-81
2023/07/09 10:55:25;;;;;;;;;10.00;10.00;;;;;26.60;100.00;101633.44;5035663;28;45279;-82
2023/07/09 10:58:04;;;;;;;;;22.00;17.33;;;;;26.62;100.00;101620.69;5019811;28;45418;-80
2023/07/09 11:00:34;;;;;;;;;22.33;18.33;;;;;26.54;100.00;101626.47;5026795;28;47509;-81
2023/07/09 11:03:04;;;;;;;;;27.67;26.00;;;;;26.61;100.00;101630.66;5035048;28;45514;-81
2023/07/09 11:05:30;;;;;;;;;74.25;62.75;;;;;26.75;100.00;101640.91;5036089;28;45433;-80
2023/07/09 11:08:02;;;;;;;;;34.00;29.33;;;;;26.92;100.00;101636.56;5037893;28;45443;-81
2023/07/09 11:10:50;;;;;;;;;11.00;9.00;;;;;27.14;100.00;101637.41;5038873;28;46596;-81
2023/07/09 11:13:21;;;;;;;;;14.33;14.00;;;;;27.30;100.00;101629.44;5037990;28;45520;-81
2023/07/09 11:15:48;;;;;;;;;14.67;11.67;;;;;27.34;100.00;101629.22;5039225;28;45357;-81